createdAt,value
2022-10-14T00:04:17.853Z,17.27
2022-10-14T00:09:19.144Z,17.73
2022-10-14T00:14:21.089Z,17.60
2022-10-14T00:19:22.386Z,16.77
2022-10-14T00:24:23.748Z,15.47
2022-10-14T00:29:25.165Z,20.60
2022-10-14T00:34:26.443Z,17.45
2022-10-14T00:39:27.840Z,17.53
2022-10-14T00:44:29.165Z,16.70
2022-10-14T00:49:42.045Z,16.98
2022-10-14T00:54:50.832Z,15.70
2022-10-14T00:59:54.382Z,14.10
2022-10-14T01:04:55.777Z,23.45
2022-10-14T01:10:17.319Z,17.80
2022-10-14T01:15:34.054Z,19.20
2022-10-14T01:20:45.610Z,17.45
2022-10-14T01:25:57.566Z,14.57
2022-10-14T01:31:02.709Z,16.47
2022-10-14T01:36:06.819Z,13.65
2022-10-14T01:41:17.177Z,15.77
2022-10-14T01:46:20.171Z,15.23
2022-10-14T01:51:29.320Z,12.88
2022-10-14T01:56:31.381Z,14.43
2022-10-14T02:01:34.801Z,14.63
2022-10-14T02:06:38.238Z,15.75
2022-10-14T02:11:52.464Z,13.65
2022-10-14T02:17:00.332Z,14.27
2022-10-14T02:22:03.005Z,11.05
2022-10-14T02:27:07.001Z,12.47
2022-10-14T02:32:09.800Z,11.10
2022-10-14T02:37:12.728Z,12.93
2022-10-14T02:42:13.977Z,11.93
2022-10-14T02:47:15.251Z,12.93
2022-10-14T02:52:16.651Z,13.52
2022-10-14T02:57:17.905Z,11.80
2022-10-14T03:02:19.565Z,10.47
2022-10-14T03:07:21.052Z,14.18
2022-10-14T03:12:22.571Z,13.27
2022-10-14T03:17:24.132Z,13.30
2022-10-14T03:22:25.760Z,10.65
2022-10-14T03:27:27.045Z,14.43
2022-10-14T03:32:28.368Z,12.40
2022-10-14T03:37:29.599Z,11.70
2022-10-14T03:42:30.878Z,11.67
2022-10-14T03:47:32.220Z,12.07
2022-10-14T03:52:33.481Z,15.45
2022-10-14T03:57:34.746Z,12.17
2022-10-14T04:02:36.197Z,11.90
2022-10-14T04:07:37.454Z,15.80
2022-10-14T04:12:40.144Z,13.70
2022-10-14T04:17:41.387Z,13.10
2022-10-14T04:22:42.875Z,16.42
2022-10-14T04:27:44.134Z,13.10
2022-10-14T04:32:46.415Z,14.90
2022-10-14T04:37:47.665Z,10.85
2022-10-14T04:42:48.950Z,11.90
2022-10-14T04:47:50.237Z,11.02
2022-10-14T04:52:51.467Z,11.68
2022-10-14T04:57:52.796Z,13.27
2022-10-14T05:02:54.105Z,12.80
2022-10-14T05:07:55.362Z,11.60
2022-10-14T05:12:56.737Z,10.80
2022-10-14T05:17:58.115Z,32.67
2022-10-14T05:22:59.575Z,17.57
2022-10-14T05:28:00.848Z,16.33
2022-10-14T05:33:02.122Z,16.20
2022-10-14T05:38:04.418Z,11.40
2022-10-14T05:43:06.423Z,18.57
2022-10-14T05:48:07.659Z,19.83
2022-10-14T05:53:09.290Z,20.30
2022-10-14T05:58:10.613Z,16.27
2022-10-14T06:03:12.107Z,14.02
2022-10-14T06:08:13.413Z,15.07
2022-10-14T06:13:14.680Z,11.70
2022-10-14T06:18:15.977Z,12.68
2022-10-14T06:23:17.221Z,23.07
2022-10-14T06:28:18.624Z,16.77
2022-10-14T06:33:20.300Z,15.77
2022-10-14T06:38:21.769Z,12.63
2022-10-14T06:43:23.124Z,15.87
2022-10-14T06:48:24.353Z,13.52
2022-10-14T06:53:25.877Z,14.70
2022-10-14T06:58:27.200Z,17.27
2022-10-14T07:03:28.519Z,33.15
2022-10-14T07:08:29.794Z,18.33
2022-10-14T07:13:31.279Z,19.37
2022-10-14T07:18:32.528Z,26.13
2022-10-14T07:23:33.988Z,21.23
2022-10-14T07:28:35.394Z,15.80
2022-10-14T07:38:44.577Z,15.15
2022-10-14T07:43:49.786Z,21.93
2022-10-14T07:48:57.313Z,19.38
2022-10-14T07:54:00.025Z,25.75
2022-10-14T07:59:01.358Z,33.87
2022-10-14T08:04:02.709Z,13.90
2022-10-14T08:09:05.412Z,16.17
2022-10-14T08:14:06.894Z,36.33
2022-10-14T08:19:14.196Z,14.52
2022-10-14T08:24:16.103Z,15.75
2022-10-14T08:29:17.413Z,17.30
2022-10-14T08:34:21.103Z,15.65
2022-10-14T08:39:22.431Z,12.57
2022-10-14T08:44:28.573Z,20.10
2022-10-14T08:49:35.436Z,15.95
2022-10-14T08:54:38.254Z,15.20
2022-10-14T08:59:41.011Z,11.93
2022-10-14T09:04:42.307Z,25.40
2022-10-14T09:09:44.873Z,14.32
2022-10-14T09:14:47.520Z,13.33
2022-10-14T09:19:50.325Z,14.90
2022-10-14T09:24:51.583Z,14.75
2022-10-14T09:29:58.919Z,10.90
2022-10-14T09:35:00.553Z,10.13
2022-10-14T09:40:04.676Z,17.38
2022-10-14T09:45:09.282Z,18.55
2022-10-14T09:50:14.455Z,16.40
2022-10-14T09:55:19.885Z,17.55
2022-10-14T10:00:28.697Z,10.93
2022-10-14T10:05:31.277Z,11.53
2022-10-14T10:10:35.073Z,10.98
2022-10-14T10:15:36.639Z,10.18
2022-10-14T10:20:38.015Z,9.13
2022-10-14T10:25:39.323Z,14.33
2022-10-14T10:30:52.994Z,9.13
2022-10-14T10:36:04.380Z,11.88
2022-10-14T10:41:24.343Z,14.33
2022-10-14T10:46:25.739Z,10.90
2022-10-14T10:51:27.645Z,7.10
2022-10-14T10:56:33.599Z,8.10
2022-10-14T11:01:50.542Z,8.27
2022-10-14T11:07:24.024Z,9.13
2022-10-14T11:12:29.184Z,11.53
2022-10-14T11:17:36.824Z,8.40
2022-10-14T11:22:56.902Z,7.55
2022-10-14T11:28:16.707Z,8.18
2022-10-14T11:33:17.959Z,5.53
2022-10-14T11:38:19.351Z,9.18
2022-10-14T11:43:39.469Z,6.47
2022-10-14T11:48:51.205Z,6.93
2022-10-14T11:54:12.828Z,5.85
2022-10-14T11:59:33.151Z,7.50
2022-10-14T12:04:37.250Z,7.33
2022-10-14T12:09:41.338Z,6.97
2022-10-14T12:14:44.656Z,6.80
2022-10-14T12:19:46.228Z,7.22
2022-10-14T12:24:52.020Z,5.63
2022-10-14T12:29:55.640Z,5.65
2022-10-14T12:34:58.072Z,8.98
2022-10-14T12:40:02.191Z,7.57
2022-10-14T12:45:14.521Z,7.95
2022-10-14T12:50:15.762Z,8.25
2022-10-14T12:55:18.690Z,8.33
2022-10-14T13:00:23.168Z,7.10
2022-10-14T13:05:38.217Z,7.03
2022-10-14T13:10:45.210Z,5.72
2022-10-14T13:15:50.140Z,8.47
2022-10-14T13:20:52.517Z,7.78
2022-10-14T13:25:56.658Z,7.60
2022-10-14T13:31:17.149Z,7.13
2022-10-14T13:36:33.293Z,6.13
2022-10-14T13:41:34.759Z,8.57
2022-10-14T13:46:39.016Z,9.03
2022-10-14T13:51:40.393Z,6.07
2022-10-14T13:56:41.705Z,7.13
2022-10-14T14:01:43.028Z,6.65
2022-10-14T14:07:03.204Z,7.43
2022-10-14T14:12:07.525Z,6.82
2022-10-14T14:17:17.015Z,7.28
2022-10-14T14:22:24.441Z,10.83
2022-10-14T14:27:26.740Z,7.65
2022-10-14T14:32:31.807Z,9.65
2022-10-14T14:37:53.302Z,7.20
2022-10-14T14:42:58.426Z,9.47
2022-10-14T14:48:04.104Z,10.45
2022-10-14T14:53:15.314Z,8.75
2022-10-14T14:58:23.282Z,7.90
2022-10-14T15:03:30.660Z,8.85
2022-10-14T15:08:34.574Z,9.32
2022-10-14T15:13:38.666Z,8.73
2022-10-14T15:18:43.375Z,6.53
2022-10-14T15:23:46.061Z,10.25
2022-10-14T15:28:47.623Z,7.07
2022-10-14T15:33:49.021Z,5.10
2022-10-14T15:44:29.212Z,5.88
2022-10-14T15:49:32.332Z,7.73
2022-10-14T15:54:33.645Z,5.78
2022-10-14T15:59:34.869Z,7.20
2022-10-14T16:04:39.256Z,5.97
2022-10-14T16:09:47.105Z,6.65
2022-10-14T16:14:48.323Z,5.47
2022-10-14T16:19:49.630Z,4.80
2022-10-14T16:24:51.498Z,5.57
2022-10-14T16:29:52.744Z,4.65
2022-10-14T16:34:54.284Z,4.75
2022-10-14T16:39:55.552Z,5.07
2022-10-14T16:44:56.791Z,7.65
2022-10-14T16:49:59.039Z,9.50
2022-10-14T16:55:00.280Z,10.87
2022-10-14T17:00:02.180Z,7.15
2022-10-14T17:05:03.484Z,6.88
2022-10-14T17:10:05.398Z,7.40
2022-10-14T17:15:06.975Z,7.43
2022-10-14T17:20:09.183Z,10.32
2022-10-14T17:25:10.474Z,12.00
2022-10-14T17:30:12.084Z,18.57
2022-10-14T17:35:15.233Z,9.55
2022-10-14T17:40:16.839Z,11.45
2022-10-14T17:45:19.511Z,10.13
2022-10-14T17:50:22.644Z,11.93
2022-10-14T17:55:23.923Z,11.88
2022-10-14T18:00:25.185Z,9.40
2022-10-14T18:05:26.413Z,7.00
2022-10-14T18:10:27.643Z,6.90
2022-10-14T18:15:30.776Z,7.50
2022-10-14T18:20:32.964Z,7.10
2022-10-14T18:25:34.505Z,9.13
2022-10-14T18:30:38.035Z,10.75
2022-10-14T18:35:39.290Z,7.53
2022-10-14T18:40:40.539Z,6.43
2022-10-14T18:45:41.817Z,9.55
2022-10-14T18:50:43.149Z,23.93
2022-10-14T18:55:44.600Z,12.10
2022-10-14T19:00:45.840Z,10.23
2022-10-14T19:05:47.142Z,6.47
2022-10-14T19:10:48.382Z,11.55
2022-10-14T19:15:58.862Z,8.73
2022-10-14T19:21:08.568Z,8.87
2022-10-14T19:26:11.448Z,8.70
2022-10-14T19:31:14.299Z,6.70
2022-10-14T19:36:16.477Z,11.70
2022-10-14T19:41:18.363Z,4.87
2022-10-14T19:46:20.713Z,7.03
2022-10-14T19:51:21.995Z,8.30
2022-10-14T19:56:24.782Z,7.23
2022-10-14T20:01:27.565Z,7.32
2022-10-14T20:06:31.579Z,9.15
2022-10-14T20:11:33.202Z,9.60
2022-10-14T20:16:34.536Z,14.57
2022-10-14T20:21:36.016Z,9.05
2022-10-14T20:26:37.738Z,9.53
2022-10-14T20:31:39.243Z,9.25
2022-10-14T20:36:40.618Z,12.25
2022-10-14T20:41:41.887Z,11.70
2022-10-14T20:46:43.213Z,28.07
2022-10-14T20:51:44.445Z,13.80
2022-10-14T20:56:45.729Z,12.60
2022-10-14T21:01:47.041Z,12.47
2022-10-14T21:06:48.421Z,11.10
2022-10-14T21:11:49.689Z,10.77
2022-10-14T21:16:50.953Z,9.37
2022-10-14T21:21:52.266Z,8.90
2022-10-14T21:26:53.586Z,9.48
2022-10-14T21:31:54.805Z,7.67
2022-10-14T21:36:56.663Z,10.25
2022-10-14T21:41:57.916Z,8.40
2022-10-14T21:46:59.150Z,9.93
2022-10-14T21:52:00.414Z,8.85
2022-10-14T21:57:02.121Z,9.60
2022-10-14T22:02:03.367Z,9.37
2022-10-14T22:07:05.353Z,8.05
2022-10-14T22:12:06.682Z,9.50
2022-10-14T22:17:08.039Z,9.97
2022-10-14T22:22:09.319Z,8.10
2022-10-14T22:27:10.612Z,7.82
2022-10-14T22:32:11.842Z,10.00
2022-10-14T22:37:13.112Z,9.85
2022-10-14T22:42:14.631Z,8.70
2022-10-14T22:47:16.156Z,9.70
2022-10-14T22:52:17.477Z,9.95
2022-10-14T22:57:18.810Z,8.75
2022-10-14T23:02:20.385Z,9.90
2022-10-14T23:07:21.912Z,12.00
2022-10-14T23:12:23.582Z,13.32
2022-10-14T23:17:24.983Z,11.90
2022-10-14T23:22:40.641Z,10.27
2022-10-14T23:27:53.229Z,8.73
2022-10-14T23:33:04.519Z,8.10
2022-10-14T23:38:05.921Z,9.38
2022-10-14T23:43:07.244Z,8.27
2022-10-14T23:48:08.487Z,9.27
2022-10-14T23:53:09.905Z,7.38
2022-10-14T23:58:11.625Z,7.93
